Time;durP1;ratioP1;P1;durP2;ratioP2;P2;SDS_P1;SDS_P2;PMS_P1;PMS_P2;Temp;Humidity;BMP_temperature;BMP_pressure;BME280_temperature;BME280_humidity;BME280_pressure;Samples;Min_cycle;Max_cycle;Signal;HPM_P1;HPM_P2
2024/02/21 00:01:47;;;;;;;4.03;3.73;;;;;;;;;;6139520;29;20312;-61
2024/02/21 00:04:51;;;;;;;3.97;3.77;;;;;;;;;;6138383;29;20300;-61
2024/02/21 00:07:55;;;;;;;4.30;4.03;;;;;;;;;;6138600;29;20548;-61
2024/02/21 00:10:59;;;;;;;3.60;3.40;;;;;;;;;;6127593;29;20295;-61
2024/02/21 00:14:03;;;;;;;3.83;3.63;;;;;;;;;;6115120;29;20292;-61
2024/02/21 00:17:09;;;;;;;4.40;4.10;;;;;;;;;;6114323;29;20429;-60
2024/02/21 00:20:13;;;;;;;4.03;3.73;;;;;;;;;;6113539;29;20327;-60
2024/02/21 00:23:17;;;;;;;4.47;4.17;;;;;;;;;;6114182;29;20304;-60
2024/02/21 00:26:21;;;;;;;3.83;3.67;;;;;;;;;;6115184;29;20304;-60
2024/02/21 00:29:25;;;;;;;3.93;3.73;;;;;;;;;;6114521;29;20307;-60
2024/02/21 00:32:32;;;;;;;4.30;4.10;;;;;;;;;;6115096;29;20298;-60
2024/02/21 00:35:36;;;;;;;3.90;3.70;;;;;;;;;;6114334;29;20299;-60
2024/02/21 00:38:40;;;;;;;3.90;3.70;;;;;;;;;;6113665;29;20493;-61
2024/02/21 00:41:43;;;;;;;3.77;3.57;;;;;;;;;;6114572;29;20295;-61
2024/02/21 00:44:47;;;;;;;3.67;3.53;;;;;;;;;;6113868;29;20306;-61
2024/02/21 00:47:53;;;;;;;3.87;3.67;;;;;;;;;;6111320;29;20317;-61
2024/02/21 00:50:56;;;;;;;4.10;3.80;;;;;;;;;;6091244;29;20297;-61
2024/02/21 00:54:01;;;;;;;3.57;3.47;;;;;;;;;;6101464;29;20302;-61
2024/02/21 00:57:06;;;;;;;3.13;3.03;;;;;;;;;;6120380;29;20292;-61
2024/02/21 01:00:11;;;;;;;3.07;2.97;;;;;;;;;;6137527;29;20298;-61
2024/02/21 01:03:16;;;;;;;3.00;2.90;;;;;;;;;;6137100;29;20300;-61
2024/02/21 01:06:20;;;;;;;2.97;2.87;;;;;;;;;;6138145;29;20461;-61
2024/02/21 01:09:24;;;;;;;4.00;3.53;;;;;;;;;;6137876;29;20294;-61
2024/02/21 01:12:28;;;;;;;3.10;3.00;;;;;;;;;;6114991;29;20297;-61
2024/02/21 01:15:33;;;;;;;3.40;3.30;;;;;;;;;;6113516;29;20536;-61
2024/02/21 01:18:40;;;;;;;3.07;2.97;;;;;;;;;;6113807;29;20295;-60
2024/02/21 01:21:44;;;;;;;3.43;3.20;;;;;;;;;;6114231;29;20304;-61
2024/02/21 01:24:48;;;;;;;3.60;3.43;;;;;;;;;;6112959;29;20357;-61
2024/02/21 01:27:52;;;;;;;6.00;4.17;;;;;;;;;;6113341;29;20299;-62
2024/02/21 01:30:56;;;;;;;3.57;3.37;;;;;;;;;;6113978;29;20287;-61
2024/02/21 01:34:01;;;;;;;4.20;3.87;;;;;;;;;;6112746;29;20295;-61
2024/02/21 01:37:07;;;;;;;4.57;4.17;;;;;;;;;;6113440;29;20296;-61
2024/02/21 01:40:12;;;;;;;4.00;3.80;;;;;;;;;;6112226;29;20363;-61
2024/02/21 01:43:20;;;;;;;4.53;4.13;;;;;;;;;;6113072;29;20299;-61
2024/02/21 01:46:27;;;;;;;4.40;4.00;;;;;;;;;;6113364;29;20311;-61
2024/02/21 01:49:33;;;;;;;4.87;4.37;;;;;;;;;;6113418;29;20300;-61
2024/02/21 01:52:37;;;;;;;5.27;4.73;;;;;;;;;;6113866;29;20298;-61
2024/02/21 01:55:40;;;;;;;4.43;4.03;;;;;;;;;;6131699;29;20301;-61
2024/02/21 01:58:47;;;;;;;6.33;4.83;;;;;;;;;;6135466;29;20315;-61
2024/02/21 02:01:51;;;;;;;6.53;5.10;;;;;;;;;;6136256;29;20300;-61
2024/02/21 02:04:57;;;;;;;5.37;4.50;;;;;;;;;;6135365;29;20550;-61
2024/02/21 02:08:01;;;;;;;6.10;5.00;;;;;;;;;;6136254;29;20281;-61
2024/02/21 02:11:06;;;;;;;8.67;5.83;;;;;;;;;;6124642;29;20434;-61
2024/02/21 02:14:10;;;;;;;5.73;5.13;;;;;;;;;;6112504;29;20563;-61
2024/02/21 02:17:16;;;;;;;6.50;5.07;;;;;;;;;;6113132;29;20307;-61
2024/02/21 02:20:21;;;;;;;8.47;5.77;;;;;;;;;;6111881;29;20300;-61
2024/02/21 02:23:27;;;;;;;9.50;5.87;;;;;;;;;;6111619;29;20291;-61
2024/02/21 02:26:31;;;;;;;13.90;5.53;;;;;;;;;;6112786;29;20323;-61
2024/02/21 02:29:35;;;;;;;9.00;5.90;;;;;;;;;;6112593;29;20337;-61
2024/02/21 02:32:39;;;;;;;11.57;6.13;;;;;;;;;;6112632;29;20299;-61
2024/02/21 02:35:43;;;;;;;10.10;6.17;;;;;;;;;;6112736;29;20312;-60
2024/02/21 02:38:48;;;;;;;10.27;6.20;;;;;;;;;;6112417;29;20306;-61
2024/02/21 02:41:52;;;;;;;9.53;6.57;;;;;;;;;;6112736;29;20583;-61
2024/02/21 02:44:57;;;;;;;13.23;6.27;;;;;;;;;;6111557;29;20295;-61
2024/02/21 02:48:01;;;;;;;8.70;5.70;;;;;;;;;;6112498;29;20296;-61
2024/02/21 02:51:05;;;;;;;6.87;5.70;;;;;;;;;;6113295;29;20322;-61
2024/02/21 02:54:10;;;;;;;9.73;6.17;;;;;;;;;;6123357;29;20303;-61
2024/02/21 02:57:14;;;;;;;6.83;6.10;;;;;;;;;;6139632;29;20298;-61
2024/02/21 03:00:18;;;;;;;7.43;5.80;;;;;;;;;;6140054;29;20308;-61
2024/02/21 03:03:23;;;;;;;8.70;6.00;;;;;;;;;;6140195;29;20292;-61
2024/02/21 03:06:27;;;;;;;5.57;5.07;;;;;;;;;;6139928;29;20295;-61
2024/02/21 03:09:32;;;;;;;7.53;5.30;;;;;;;;;;6140317;29;20599;-60
2024/02/21 03:12:36;;;;;;;6.53;4.70;;;;;;;;;;6140591;29;20364;-60
2024/02/21 03:15:40;;;;;;;5.47;4.93;;;;;;;;;;6140055;29;20295;-60
2024/02/21 03:18:44;;;;;;;4.97;4.50;;;;;;;;;;6140009;29;20310;-60
2024/02/21 03:21:49;;;;;;;4.27;3.97;;;;;;;;;;6140709;29;20466;-61
2024/02/21 03:24:54;;;;;;;4.20;3.80;;;;;;;;;;6139960;29;20303;-60
2024/02/21 03:27:58;;;;;;;3.80;3.53;;;;;;;;;;6139393;29;20296;-60
2024/02/21 03:31:02;;;;;;;3.40;3.20;;;;;;;;;;6123109;29;20299;-60
2024/02/21 03:34:06;;;;;;;3.77;3.50;;;;;;;;;;6139821;29;20294;-60
2024/02/21 03:37:10;;;;;;;2.90;2.77;;;;;;;;;;6139707;29;20295;-60
2024/02/21 03:40:15;;;;;;;2.90;2.70;;;;;;;;;;6138838;29;20316;-60
2024/02/21 03:43:20;;;;;;;3.00;2.80;;;;;;;;;;6139677;29;20300;-60
2024/02/21 03:46:25;;;;;;;2.93;2.63;;;;;;;;;;6139870;29;20295;-60
2024/02/21 03:49:29;;;;;;;2.33;2.23;;;;;;;;;;6138286;29;20301;-60
2024/02/21 03:52:34;;;;;;;2.50;2.30;;;;;;;;;;6138464;29;20298;-62
2024/02/21 03:55:39;;;;;;;2.43;2.33;;;;;;;;;;6120984;29;20306;-61
2024/02/21 03:58:43;;;;;;;2.37;2.33;;;;;;;;;;6114982;29;20319;-61
2024/02/21 04:01:47;;;;;;;2.37;2.27;;;;;;;;;;6117112;29;20294;-61
2024/02/21 04:04:50;;;;;;;2.80;2.40;;;;;;;;;;6127633;29;20303;-61
2024/02/21 04:07:55;;;;;;;2.80;2.63;;;;;;;;;;6118487;29;20486;-61
2024/02/21 04:11:00;;;;;;;2.30;2.20;;;;;;;;;;6125964;29;20404;-61
2024/02/21 04:14:04;;;;;;;2.47;2.37;;;;;;;;;;6138349;29;20478;-61
2024/02/21 04:17:08;;;;;;;3.83;1.97;;;;;;;;;;6139184;29;20293;-61
2024/02/21 04:20:15;;;;;;;2.27;2.17;;;;;;;;;;6122095;29;20303;-61
2024/02/21 04:23:19;;;;;;;2.33;2.23;;;;;;;;;;6114646;29;20319;-61
2024/02/21 04:26:24;;;;;;;2.20;2.10;;;;;;;;;;6115160;29;20383;-60
2024/02/21 04:29:28;;;;;;;2.30;2.20;;;;;;;;;;6114627;29;20300;-60
2024/02/21 04:32:32;;;;;;;4.10;2.20;;;;;;;;;;6113374;29;20314;-61
2024/02/21 04:35:38;;;;;;;1.97;1.97;;;;;;;;;;6118258;29;20453;-60
2024/02/21 04:38:41;;;;;;;3.03;2.10;;;;;;;;;;6138235;29;20308;-60
2024/02/21 04:41:47;;;;;;;2.20;2.20;;;;;;;;;;6138311;29;20603;-60
2024/02/21 04:44:51;;;;;;;2.23;2.17;;;;;;;;;;6137692;29;20315;-60
2024/02/21 04:47:54;;;;;;;2.47;2.30;;;;;;;;;;6137836;29;20295;-60
2024/02/21 04:50:58;;;;;;;3.47;2.37;;;;;;;;;;6138335;29;20286;-61
2024/02/21 04:54:03;;;;;;;4.40;2.77;;;;;;;;;;6132064;29;20318;-61
2024/02/21 04:57:10;;;;;;;2.70;2.50;;;;;;;;;;6114836;29;20340;-61
2024/02/21 05:00:14;;;;;;;3.43;2.40;;;;;;;;;;6113951;29;20295;-61
2024/02/21 05:03:18;;;;;;;2.60;2.43;;;;;;;;;;6113864;29;20303;-61
2024/02/21 05:06:22;;;;;;;2.97;2.77;;;;;;;;;;6114380;29;20588;-61
2024/02/21 05:09:27;;;;;;;3.20;2.97;;;;;;;;;;6114274;29;20296;-62
2024/02/21 05:12:32;;;;;;;5.07;2.80;;;;;;;;;;6137254;29;20310;-62
2024/02/21 05:15:36;;;;;;;3.37;2.80;;;;;;;;;;6137247;29;20299;-61
2024/02/21 05:18:42;;;;;;;3.27;2.97;;;;;;;;;;6137103;29;20308;-61
2024/02/21 05:21:46;;;;;;;3.07;2.73;;;;;;;;;;6137491;29;20315;-61
2024/02/21 05:24:50;;;;;;;6.20;3.23;;;;;;;;;;6136965;29;20301;-61
2024/02/21 05:27:55;;;;;;;3.67;3.03;;;;;;;;;;6119974;29;20295;-61
2024/02/21 05:30:59;;;;;;;2.90;2.67;;;;;;;;;;6137434;29;20540;-61
2024/02/21 05:34:04;;;;;;;4.43;3.00;;;;;;;;;;6136731;29;20297;-61
2024/02/21 05:37:08;;;;;;;4.67;2.93;;;;;;;;;;6137651;29;20304;-61
2024/02/21 05:40:13;;;;;;;2.90;2.70;;;;;;;;;;6136775;29;20588;-61
2024/02/21 05:43:18;;;;;;;3.93;3.00;;;;;;;;;;6137016;29;20302;-61
2024/02/21 05:46:22;;;;;;;5.40;3.43;;;;;;;;;;6137111;29;20478;-61
2024/02/21 05:49:26;;;;;;;5.13;2.80;;;;;;;;;;6136489;29;20301;-61
2024/02/21 05:52:30;;;;;;;2.77;2.57;;;;;;;;;;6136332;29;20303;-62
2024/02/21 05:55:34;;;;;;;3.37;2.93;;;;;;;;;;6119217;29;20315;-61
2024/02/21 05:58:40;;;;;;;3.27;3.07;;;;;;;;;;6113009;29;20298;-61
2024/02/21 06:01:44;;;;;;;4.87;3.33;;;;;;;;;;6113331;29;20416;-61
2024/02/21 06:04:48;;;;;;;3.80;3.50;;;;;;;;;;6112743;29;20350;-61
2024/02/21 06:07:52;;;;;;;4.83;3.43;;;;;;;;;;6112270;29;20451;-61
2024/02/21 06:10:56;;;;;;;3.97;3.67;;;;;;;;;;6125678;29;20291;-61
2024/02/21 06:14:01;;;;;;;3.97;3.70;;;;;;;;;;6136242;29;20585;-61
2024/02/21 06:17:05;;;;;;;4.93;4.13;;;;;;;;;;6136711;29;20480;-60
2024/02/21 06:20:10;;;;;;;4.60;3.67;;;;;;;;;;6136237;29;20313;-60
2024/02/21 06:23:15;;;;;;;4.87;4.10;;;;;;;;;;6136449;29;20415;-61
2024/02/21 06:26:19;;;;;;;7.30;4.40;;;;;;;;;;6138960;29;20386;-62
2024/02/21 06:29:24;;;;;;;5.90;4.50;;;;;;;;;;6141190;29;20623;-61
2024/02/21 06:32:28;;;;;;;10.30;6.10;;;;;;;;;;6140204;29;20774;-61
2024/02/21 06:35:32;;;;;;;6.80;4.13;;;;;;;;;;6140884;29;20456;-61
2024/02/21 06:38:36;;;;;;;5.23;4.50;;;;;;;;;;6140674;29;20600;-60
2024/02/21 06:41:40;;;;;;;6.83;4.70;;;;;;;;;;6140385;29;20309;-61
2024/02/21 06:44:46;;;;;;;6.53;4.17;;;;;;;;;;6140619;29;20299;-61
2024/02/21 06:47:50;;;;;;;9.20;4.63;;;;;;;;;;6140554;29;20330;-61
2024/02/21 06:50:54;;;;;;;6.10;4.50;;;;;;;;;;6141235;29;20297;-61
2024/02/21 06:53:58;;;;;;;6.40;4.13;;;;;;;;;;6135588;29;20292;-61
2024/02/21 06:57:02;;;;;;;5.57;4.37;;;;;;;;;;6117523;29;20480;-61
2024/02/21 07:00:09;;;;;;;8.77;4.17;;;;;;;;;;6116883;29;20346;-61
2024/02/21 07:03:13;;;;;;;9.23;4.83;;;;;;;;;;6116370;29;20473;-60
2024/02/21 07:06:17;;;;;;;5.17;4.67;;;;;;;;;;6117110;29;20296;-62
2024/02/21 07:09:21;;;;;;;8.07;4.70;;;;;;;;;;6116853;29;20308;-61
2024/02/21 07:12:26;;;;;;;7.13;4.70;;;;;;;;;;6141440;29;20231;-61
2024/02/21 07:15:32;;;;;;;5.40;4.93;;;;;;;;;;6140320;29;20309;-60
2024/02/21 07:18:36;;;;;;;8.17;5.23;;;;;;;;;;6139789;29;20304;-61
2024/02/21 07:21:42;;;;;;;8.50;4.80;;;;;;;;;;6140120;29;20302;-61
2024/02/21 07:24:45;;;;;;;14.13;4.67;;;;;;;;;;6139572;29;20302;-61
2024/02/21 07:27:49;;;;;;;6.13;5.17;;;;;;;;;;6139438;29;20313;-61
2024/02/21 07:30:55;;;;;;;6.87;5.03;;;;;;;;;;6140341;29;20579;-60
2024/02/21 07:33:59;;;;;;;7.70;5.27;;;;;;;;;;6139785;29;20294;-60
2024/02/21 07:37:03;;;;;;;6.40;5.43;;;;;;;;;;6139806;29;20289;-61
2024/02/21 07:40:13;;;;;;;7.90;5.20;;;;;;;;;;6139922;29;20323;-62
2024/02/21 07:43:18;;;;;;;8.10;5.27;;;;;;;;;;6139798;29;20310;-61
2024/02/21 07:46:23;;;;;;;10.33;5.97;;;;;;;;;;6139781;29;20360;-61
2024/02/21 07:49:27;;;;;;;10.53;5.87;;;;;;;;;;6139316;29;20293;-61
2024/02/21 07:52:31;;;;;;;8.90;5.80;;;;;;;;;;6139034;29;20304;-61
2024/02/21 07:55:35;;;;;;;13.00;6.00;;;;;;;;;;6121731;29;20610;-60
2024/02/21 07:58:38;;;;;;;10.43;6.07;;;;;;;;;;6115243;29;20297;-61
2024/02/21 08:01:44;;;;;;;10.87;5.53;;;;;;;;;;6115676;29;20346;-61
2024/02/21 08:04:48;;;;;;;10.97;5.77;;;;;;;;;;6115106;29;20300;-61
2024/02/21 08:07:52;;;;;;;7.97;5.67;;;;;;;;;;6114650;29;20458;-61
2024/02/21 08:11:00;;;;;;;11.07;5.90;;;;;;;;;;6128874;29;20290;-62
2024/02/21 08:14:04;;;;;;;10.57;5.63;;;;;;;;;;6138835;29;20598;-61
2024/02/21 08:17:09;;;;;;;9.53;5.40;;;;;;;;;;6139256;29;20292;-61
2024/02/21 08:20:13;;;;;;;11.33;5.07;;;;;;;;;;6138451;29;20293;-61
2024/02/21 08:23:18;;;;;;;9.97;5.37;;;;;;;;;;6138223;29;20299;-60
2024/02/21 08:26:21;;;;;;;12.30;5.53;;;;;;;;;;6138728;29;20302;-60
2024/02/21 08:29:25;;;;;;;14.17;5.13;;;;;;;;;;6138071;29;20320;-60
2024/02/21 08:32:31;;;;;;;18.17;5.20;;;;;;;;;;6138952;29;20488;-60
2024/02/21 08:35:35;;;;;;;13.60;4.90;;;;;;;;;;6138587;29;20310;-60
2024/02/21 08:38:39;;;;;;;11.67;5.17;;;;;;;;;;6138147;29;20309;-61
2024/02/21 08:41:43;;;;;;;10.63;4.73;;;;;;;;;;6138371;29;20301;-60
2024/02/21 08:44:59;;;;;;;16.20;5.53;;;;;;;;;;6137409;29;20302;-61
2024/02/21 08:48:06;;;;;;;13.87;5.00;;;;;;;;;;6137757;29;20304;-61
2024/02/21 08:51:11;;;;;;;9.30;4.90;;;;;;;;;;6137859;29;20294;-61
2024/02/21 08:54:15;;;;;;;10.13;5.00;;;;;;;;;;6130292;29;20310;-61
2024/02/21 08:57:19;;;;;;;13.27;5.17;;;;;;;;;;6114976;29;20298;-61
2024/02/21 09:00:26;;;;;;;12.33;4.87;;;;;;;;;;6114025;29;20298;-61
2024/02/21 09:03:33;;;;;;;15.73;5.33;;;;;;;;;;6114354;29;20298;-61
2024/02/21 09:06:41;;;;;;;14.20;5.00;;;;;;;;;;6112804;29;20462;-61
2024/02/21 09:09:45;;;;;;;8.87;4.77;;;;;;;;;;6116514;29;20296;-61
2024/02/21 09:12:49;;;;;;;9.10;4.73;;;;;;;;;;6137297;29;20471;-61
2024/02/21 09:15:53;;;;;;;10.03;4.70;;;;;;;;;;6137677;29;20294;-60
2024/02/21 09:18:58;;;;;;;8.43;4.83;;;;;;;;;;6137523;29;20298;-60
2024/02/21 09:22:03;;;;;;;15.50;4.63;;;;;;;;;;6137566;29;20547;-60
2024/02/21 09:25:07;;;;;;;6.27;3.80;;;;;;;;;;6137164;29;20294;-60
2024/02/21 09:28:12;;;;;;;7.33;3.87;;;;;;;;;;6136706;29;20310;-61
2024/02/21 09:31:16;;;;;;;8.43;3.93;;;;;;;;;;6137179;29;20305;-60
2024/02/21 09:34:22;;;;;;;6.77;4.13;;;;;;;;;;6136822;29;20477;-60
2024/02/21 09:37:26;;;;;;;7.63;4.00;;;;;;;;;;6137421;29;20303;-60
2024/02/21 09:40:31;;;;;;;6.40;4.00;;;;;;;;;;6136322;29;20305;-60
2024/02/21 09:43:35;;;;;;;12.23;5.10;;;;;;;;;;6136658;29;20295;-61
2024/02/21 09:46:48;;;;;;;6.17;4.17;;;;;;;;;;6136948;29;20595;-61
2024/02/21 09:49:56;;;;;;;9.00;3.83;;;;;;;;;;6135764;29;20303;-61
2024/02/21 09:53:02;;;;;;;4.27;3.60;;;;;;;;;;6136908;29;20294;-61
2024/02/21 09:56:09;;;;;;;3.30;3.00;;;;;;;;;;6115314;29;20291;-61
2024/02/21 09:59:18;;;;;;;5.93;3.60;;;;;;;;;;6112753;29;20310;-61
2024/02/21 10:02:22;;;;;;;5.30;3.53;;;;;;;;;;6113246;29;20301;-61
2024/02/21 10:05:28;;;;;;;3.80;3.50;;;;;;;;;;6112972;29;20489;-60
2024/02/21 10:08:32;;;;;;;4.53;3.27;;;;;;;;;;6112855;29;20303;-60
2024/02/21 10:11:36;;;;;;;5.23;3.20;;;;;;;;;;6128880;29;20480;-60
2024/02/21 10:14:40;;;;;;;7.00;3.43;;;;;;;;;;6136305;29;20302;-60
2024/02/21 10:17:44;;;;;;;5.17;3.47;;;;;;;;;;6136408;29;20306;-61
2024/02/21 10:20:49;;;;;;;3.67;3.40;;;;;;;;;;6137027;29;20393;-60
2024/02/21 10:23:53;;;;;;;5.60;3.40;;;;;;;;;;6135212;29;20294;-61
2024/02/21 10:27:03;;;;;;;3.37;3.17;;;;;;;;;;6136392;29;20554;-61
2024/02/21 10:30:09;;;;;;;3.40;3.23;;;;;;;;;;6134960;29;20298;-61
2024/02/21 10:33:20;;;;;;;4.57;3.00;;;;;;;;;;6136401;29;20298;-61
2024/02/21 10:36:26;;;;;;;3.67;3.37;;;;;;;;;;6137033;29;20307;-61
2024/02/21 10:39:31;;;;;;;3.37;3.27;;;;;;;;;;6136519;29;20307;-61
2024/02/21 10:42:37;;;;;;;3.30;3.20;;;;;;;;;;6136230;29;20298;-61
2024/02/21 10:45:42;;;;;;;2.87;2.77;;;;;;;;;;6136757;29;20310;-61
2024/02/21 10:48:47;;;;;;;3.33;3.03;;;;;;;;;;6136462;29;22178;-62
2024/02/21 10:51:55;;;;;;;3.23;2.80;;;;;;;;;;6136643;29;20299;-61
2024/02/21 10:55:03;;;;;;;3.53;3.03;;;;;;;;;;6123044;29;20295;-61
2024/02/21 10:58:07;;;;;;;3.00;2.87;;;;;;;;;;6112668;29;20576;-61
2024/02/21 11:01:12;;;;;;;3.43;2.90;;;;;;;;;;6113191;29;20299;-61
2024/02/21 11:04:17;;;;;;;3.57;3.13;;;;;;;;;;6112311;29;20303;-61
2024/02/21 11:07:22;;;;;;;2.90;2.80;;;;;;;;;;6108184;29;20302;-61
2024/02/21 11:10:27;;;;;;;2.97;2.77;;;;;;;;;;6120683;29;20306;-61
2024/02/21 11:13:32;;;;;;;3.50;3.20;;;;;;;;;;6138177;29;20291;-61
2024/02/21 11:16:41;;;;;;;3.47;2.90;;;;;;;;;;6140865;29;20298;-62
2024/02/21 11:19:45;;;;;;;5.77;3.10;;;;;;;;;;6140151;29;20313;-60
2024/02/21 11:22:50;;;;;;;4.13;3.07;;;;;;;;;;6139537;29;20416;-63
2024/02/21 11:26:05;;;;;;;3.60;3.30;;;;;;;;;;6140611;29;20293;-61
2024/02/21 11:29:10;;;;;;;6.50;3.73;;;;;;;;;;6139855;29;20474;-61
2024/02/21 11:32:16;;;;;;;5.83;3.60;;;;;;;;;;6140504;29;20438;-61
2024/02/21 11:35:20;;;;;;;3.83;3.23;;;;;;;;;;6139715;29;20292;-61
2024/02/21 11:38:26;;;;;;;4.07;3.77;;;;;;;;;;6129129;29;20313;-62
2024/02/21 11:41:30;;;;;;;4.07;3.60;;;;;;;;;;6139716;29;20308;-61
2024/02/21 11:44:37;;;;;;;4.53;3.93;;;;;;;;;;6139526;29;20298;-61
2024/02/21 11:47:43;;;;;;;4.50;4.00;;;;;;;;;;6139288;29;20306;-62
2024/02/21 11:50:54;;;;;;;6.47;4.43;;;;;;;;;;6139923;29;20479;-62
2024/02/21 11:54:00;;;;;;;3.93;3.53;;;;;;;;;;6134106;29;20295;-61
2024/02/21 11:57:05;;;;;;;4.83;3.53;;;;;;;;;;6115949;29;20295;-61
2024/02/21 12:00:15;;;;;;;4.13;3.70;;;;;;;;;;6115765;29;20295;-61
2024/02/21 12:03:19;;;;;;;8.90;4.30;;;;;;;;;;6115880;29;20304;-60
2024/02/21 12:06:23;;;;;;;4.93;4.07;;;;;;;;;;6115693;29;20299;-61
2024/02/21 12:09:28;;;;;;;10.30;4.83;;;;;;;;;;6115687;29;20252;-62
2024/02/21 12:12:36;;;;;;;6.13;4.30;;;;;;;;;;6138614;29;20299;-62
2024/02/21 12:15:40;;;;;;;4.63;4.20;;;;;;;;;;6139226;29;20535;-61
2024/02/21 12:18:44;;;;;;;5.33;4.53;;;;;;;;;;6138843;29;20298;-61
2024/02/21 12:21:49;;;;;;;4.77;4.30;;;;;;;;;;6138618;29;20466;-61
2024/02/21 12:24:55;;;;;;;4.60;4.20;;;;;;;;;;6137305;29;20461;-61
2024/02/21 12:28:00;;;;;;;4.40;4.00;;;;;;;;;;6138512;29;20302;-61
2024/02/21 12:31:05;;;;;;;6.07;4.17;;;;;;;;;;6138658;29;20487;-61
2024/02/21 12:34:09;;;;;;;5.70;4.60;;;;;;;;;;6138625;29;20298;-61
2024/02/21 12:37:15;;;;;;;4.90;4.40;;;;;;;;;;6139013;29;20440;-61
2024/02/21 12:40:20;;;;;;;4.70;4.20;;;;;;;;;;6138191;29;20306;-62
2024/02/21 12:43:24;;;;;;;4.20;4.00;;;;;;;;;;6137998;29;20304;-62
2024/02/21 12:46:28;;;;;;;4.50;4.10;;;;;;;;;;6138147;29;20459;-61
2024/02/21 12:49:32;;;;;;;6.13;4.23;;;;;;;;;;6129736;29;20299;-62
2024/02/21 12:52:37;;;;;;;7.13;4.10;;;;;;;;;;6090561;29;20300;-62
2024/02/21 12:55:42;;;;;;;4.80;4.40;;;;;;;;;;6128007;29;20595;-61
2024/02/21 12:58:46;;;;;;;5.30;4.27;;;;;;;;;;6137934;29;20303;-62
2024/02/21 13:01:50;;;;;;;4.80;4.10;;;;;;;;;;6137498;29;20299;-62
2024/02/21 13:04:54;;;;;;;4.60;4.20;;;;;;;;;;6137919;29;20290;-62
2024/02/21 13:07:59;;;;;;;4.90;4.50;;;;;;;;;;6137601;29;20295;-62
2024/02/21 13:11:04;;;;;;;4.05;3.75;;;;;;;;;;6124519;29;20537;-62
2024/02/21 13:14:08;;;;;;;6.07;4.10;;;;;;;;;;6114120;29;20299;-61
2024/02/21 13:17:12;;;;;;;5.72;4.03;;;;;;;;;;6105893;29;20295;-61
2024/02/21 13:20:16;;;;;;;4.45;4.05;;;;;;;;;;6113683;29;20299;-61
2024/02/21 13:23:21;;;;;;;5.03;3.88;;;;;;;;;;6113886;29;20487;-61
2024/02/21 13:26:26;;;;;;;4.30;4.00;;;;;;;;;;6113845;29;20355;-62
2024/02/21 13:29:30;;;;;;;4.32;3.95;;;;;;;;;;6113440;29;20307;-61
2024/02/21 13:32:34;;;;;;;4.73;4.33;;;;;;;;;;6113657;29;20309;-62
2024/02/21 13:35:38;;;;;;;4.13;3.72;;;;;;;;;;6113693;29;20295;-61
2024/02/21 13:38:43;;;;;;;4.20;3.80;;;;;;;;;;6113537;29;20312;-61
2024/02/21 13:41:48;;;;;;;4.47;4.07;;;;;;;;;;6113852;29;20311;-61
2024/02/21 13:44:52;;;;;;;4.27;4.07;;;;;;;;;;6112961;29;20340;-61
2024/02/21 13:47:58;;;;;;;4.80;4.50;;;;;;;;;;6113140;29;20322;-61
2024/02/21 13:51:03;;;;;;;4.80;4.40;;;;;;;;;;6113911;29;20299;-61
2024/02/21 13:54:09;;;;;;;4.85;4.45;;;;;;;;;;6119475;29;20291;-61
2024/02/21 13:57:15;;;;;;;4.43;4.10;;;;;;;;;;6137323;29;20295;-61
2024/02/21 14:00:20;;;;;;;4.45;4.13;;;;;;;;;;6136772;29;20463;-61
2024/02/21 14:03:25;;;;;;;4.60;4.23;;;;;;;;;;6136714;29;20298;-61
2024/02/21 14:06:29;;;;;;;5.00;4.55;;;;;;;;;;6137069;29;20570;-61
2024/02/21 14:09:34;;;;;;;4.68;4.47;;;;;;;;;;6135001;29;20496;-60
2024/02/21 14:12:40;;;;;;;5.07;4.57;;;;;;;;;;6112824;29;20295;-61
2024/02/21 14:15:45;;;;;;;5.00;4.57;;;;;;;;;;6113637;29;20292;-61
2024/02/21 14:18:50;;;;;;;10.13;4.85;;;;;;;;;;6113231;29;20575;-60
2024/02/21 14:21:54;;;;;;;5.82;4.95;;;;;;;;;;6113449;29;20303;-61
2024/02/21 14:24:58;;;;;;;5.00;4.60;;;;;;;;;;6112584;29;20292;-62
2024/02/21 14:28:03;;;;;;;5.63;5.10;;;;;;;;;;6112380;29;20295;-60
2024/02/21 14:31:08;;;;;;;6.40;5.28;;;;;;;;;;6112565;29;20303;-60
2024/02/21 14:34:12;;;;;;;7.57;5.30;;;;;;;;;;6112787;29;20327;-60
2024/02/21 14:37:16;;;;;;;5.68;5.10;;;;;;;;;;6113248;29;20304;-60
2024/02/21 14:40:20;;;;;;;5.43;4.88;;;;;;;;;;6112511;29;20324;-61
2024/02/21 14:43:28;;;;;;;5.28;4.90;;;;;;;;;;6112458;29;20485;-61
2024/02/21 14:46:32;;;;;;;5.03;4.45;;;;;;;;;;6113723;29;20299;-61
2024/02/21 14:49:36;;;;;;;5.75;5.25;;;;;;;;;;6116984;29;20600;-61
2024/02/21 14:52:40;;;;;;;5.03;4.63;;;;;;;;;;6117028;29;20299;-62
2024/02/21 14:55:45;;;;;;;5.53;5.07;;;;;;;;;;6136409;29;20303;-61
2024/02/21 14:58:50;;;;;;;5.22;4.93;;;;;;;;;;6139429;29;20307;-62
2024/02/21 15:01:59;;;;;;;5.07;4.60;;;;;;;;;;6140362;29;20299;-62
2024/02/21 15:05:05;;;;;;;6.28;5.57;;;;;;;;;;6140238;29;20296;-62
2024/02/21 15:08:10;;;;;;;5.97;5.38;;;;;;;;;;6140306;29;20413;-62
2024/02/21 15:11:14;;;;;;;5.47;4.97;;;;;;;;;;6125879;29;20291;-61
2024/02/21 15:14:19;;;;;;;5.38;4.95;;;;;;;;;;6116847;29;20296;-61
2024/02/21 15:17:28;;;;;;;6.27;5.10;;;;;;;;;;6117267;29;20587;-61
2024/02/21 15:20:32;;;;;;;5.93;5.38;;;;;;;;;;6116411;29;20299;-61
2024/02/21 15:23:36;;;;;;;6.67;6.07;;;;;;;;;;6116415;29;20314;-61
2024/02/21 15:26:39;;;;;;;5.43;5.03;;;;;;;;;;6116591;29;20295;-61
2024/02/21 15:29:45;;;;;;;5.65;5.18;;;;;;;;;;6115764;29;20291;-61
2024/02/21 15:32:48;;;;;;;5.53;5.03;;;;;;;;;;6116077;29;20303;-61
2024/02/21 15:35:53;;;;;;;5.40;4.90;;;;;;;;;;6116659;29;20476;-61
2024/02/21 15:38:59;;;;;;;5.53;5.23;;;;;;;;;;6115924;29;20299;-61
2024/02/21 15:42:03;;;;;;;5.63;5.17;;;;;;;;;;6116170;29;20295;-62
2024/02/21 15:45:10;;;;;;;5.57;5.10;;;;;;;;;;6115469;29;20295;-62
2024/02/21 15:48:14;;;;;;;4.33;4.13;;;;;;;;;;6115688;29;20299;-61
2024/02/21 15:51:19;;;;;;;5.85;5.22;;;;;;;;;;6116443;29;20304;-61
2024/02/21 15:54:23;;;;;;;4.55;4.30;;;;;;;;;;6123785;29;20306;-62
2024/02/21 15:57:32;;;;;;;5.20;4.80;;;;;;;;;;6139480;29;20304;-62
2024/02/21 16:00:37;;;;;;;4.77;4.47;;;;;;;;;;6138716;29;20465;-61
2024/02/21 16:03:42;;;;;;;5.25;4.85;;;;;;;;;;6139045;29;20303;-62
2024/02/21 16:06:51;;;;;;;4.40;4.13;;;;;;;;;;6139532;29;20294;-62
2024/02/21 16:09:56;;;;;;;5.15;4.72;;;;;;;;;;6134235;29;20295;-62
2024/02/21 16:13:00;;;;;;;4.65;4.45;;;;;;;;;;6114986;29;20350;-62
2024/02/21 16:16:06;;;;;;;4.50;4.20;;;;;;;;;;6115825;29;20469;-62
2024/02/21 16:19:10;;;;;;;5.20;4.75;;;;;;;;;;6115164;29;20608;-62
2024/02/21 16:22:14;;;;;;;4.85;4.50;;;;;;;;;;6115776;29;20300;-62
2024/02/21 16:25:18;;;;;;;4.75;4.50;;;;;;;;;;6115158;29;20304;-62
2024/02/21 16:28:25;;;;;;;5.75;5.20;;;;;;;;;;6114798;29;20322;-61
2024/02/21 16:31:30;;;;;;;6.17;4.70;;;;;;;;;;6115367;29;20472;-61
2024/02/21 16:34:34;;;;;;;5.05;4.72;;;;;;;;;;6114723;29;20303;-61
2024/02/21 16:37:39;;;;;;;5.13;4.63;;;;;;;;;;6115108;29;20311;-61
2024/02/21 16:40:43;;;;;;;5.33;4.70;;;;;;;;;;6115469;29;20470;-61
2024/02/21 16:43:47;;;;;;;5.03;4.30;;;;;;;;;;6114587;29;20304;-61
2024/02/21 16:46:54;;;;;;;4.83;4.43;;;;;;;;;;6114412;29;20300;-62
2024/02/21 16:49:59;;;;;;;6.00;4.53;;;;;;;;;;6114216;29;20475;-61
2024/02/21 16:53:03;;;;;;;4.40;4.10;;;;;;;;;;6114167;29;20299;-64
2024/02/21 16:56:08;;;;;;;4.83;4.37;;;;;;;;;;6137133;29;20385;-63
2024/02/21 16:59:12;;;;;;;4.60;4.30;;;;;;;;;;6138049;29;20295;-61
2024/02/21 17:02:19;;;;;;;5.15;4.65;;;;;;;;;;6138521;29;20295;-60
2024/02/21 17:05:24;;;;;;;6.70;4.68;;;;;;;;;;6137813;29;20585;-62
2024/02/21 17:08:29;;;;;;;4.97;4.47;;;;;;;;;;6137851;29;20374;-62
2024/02/21 17:11:33;;;;;;;4.90;4.45;;;;;;;;;;6119730;29;20495;-61
2024/02/21 17:14:38;;;;;;;7.20;5.37;;;;;;;;;;6113941;29;20323;-61
2024/02/21 17:17:43;;;;;;;5.40;4.50;;;;;;;;;;6113684;29;20304;-61
2024/02/21 17:20:48;;;;;;;6.87;4.80;;;;;;;;;;6114400;29;20303;-61
2024/02/21 17:23:52;;;;;;;5.80;4.50;;;;;;;;;;6113325;29;20295;-61
2024/02/21 17:26:56;;;;;;;5.53;5.00;;;;;;;;;;6114038;29;20295;-61
2024/02/21 17:30:01;;;;;;;4.88;4.40;;;;;;;;;;6113813;29;20296;-61
2024/02/21 17:33:08;;;;;;;6.15;4.70;;;;;;;;;;6113077;29;20697;-63
2024/02/21 17:36:11;;;;;;;5.07;4.57;;;;;;;;;;6113955;29;20419;-61
2024/02/21 17:39:18;;;;;;;5.35;4.85;;;;;;;;;;6113465;29;20295;-63
2024/02/21 17:42:22;;;;;;;5.95;4.40;;;;;;;;;;6112121;29;20300;-61
2024/02/21 17:45:25;;;;;;;4.88;4.32;;;;;;;;;;6112904;29;20470;-61
2024/02/21 17:48:31;;;;;;;7.90;4.65;;;;;;;;;;6113277;29;20300;-61
2024/02/21 17:51:35;;;;;;;9.20;5.30;;;;;;;;;;6112016;29;20295;-61
2024/02/21 17:54:40;;;;;;;8.37;5.20;;;;;;;;;;6123063;29;20306;-62
2024/02/21 17:57:44;;;;;;;5.90;4.10;;;;;;;;;;6136848;29;20306;-61
2024/02/21 18:00:48;;;;;;;5.60;3.90;;;;;;;;;;6137444;29;20300;-62
2024/02/21 18:03:53;;;;;;;5.63;3.93;;;;;;;;;;6136881;29;20306;-62
2024/02/21 18:06:57;;;;;;;3.40;3.10;;;;;;;;;;6137465;29;20294;-61
2024/02/21 18:10:03;;;;;;;3.40;3.20;;;;;;;;;;6131293;29;20301;-61
2024/02/21 18:13:07;;;;;;;2.87;2.70;;;;;;;;;;6113130;29;20296;-62
2024/02/21 18:16:10;;;;;;;2.33;2.23;;;;;;;;;;6113866;29;20574;-62
2024/02/21 18:19:19;;;;;;;2.40;2.30;;;;;;;;;;6113435;29;20299;-63
2024/02/21 18:22:23;;;;;;;2.30;2.20;;;;;;;;;;6116050;29;20471;-61
2024/02/21 18:25:29;;;;;;;2.27;2.27;;;;;;;;;;6117803;29;20301;-62